Time;durP1;ratioP1;P1;durP2;ratioP2;P2;SDS_P1;SDS_P2;PMS_P1;PMS_P2;Temp;Humidity;BMP_temperature;BMP_pressure;BME280_temperature;BME280_humidity;BME280_pressure;Samples;Min_cycle;Max_cycle;Signal;HPM_P1;HPM_P2
2023/01/20 00:02:10;;;;;;;;;;;;;;;0.87;68.66;97272.50;4897727;29;19927;-77
2023/01/20 00:04:38;;;;;;;;;;;;;;;0.94;69.00;97273.84;4899624;29;19927;-77
2023/01/20 00:07:07;;;;;;;;;;;;;;;1.00;68.50;97278.13;4899844;29;19928;-77
2023/01/20 00:09:35;;;;;;;;;;;;;;;0.85;68.65;97282.66;4883584;29;19935;-77
2023/01/20 00:12:03;;;;;;;;;;;;;;;0.90;68.02;97283.47;4900742;29;19927;-76
2023/01/20 00:14:38;;;;;;;;;;;;;;;0.80;68.92;97286.13;4896918;29;19934;-77
2023/01/20 00:17:06;;;;;;;;;;;;;;;0.81;68.74;97292.28;4900307;29;19978;-74
2023/01/20 00:19:35;;;;;;;;;;;;;;;0.76;69.32;97290.41;4898275;29;19928;-73
2023/01/20 00:22:03;;;;;;;;;;;;;;;0.81;68.66;97292.28;4900376;29;19928;-74
2023/01/20 00:24:32;;;;;;;;;;;;;;;0.74;68.94;97296.00;4897241;29;19927;-73
2023/01/20 00:27:06;;;;;;;;;;;;;;;0.69;69.27;97301.34;4900470;29;19939;-74
2023/01/20 00:29:34;;;;;;;;;;;;;;;0.69;69.52;97300.50;4900434;29;19934;-73
2023/01/20 00:32:03;;;;;;;;;;;;;;;0.72;69.21;97302.69;4905556;29;19955;-73
2023/01/20 00:34:30;;;;;;;;;;;;;;;0.77;68.91;97300.81;4900280;29;19996;-73
2023/01/20 00:36:59;;;;;;;;;;;;;;;0.76;69.01;97306.44;4899952;29;19927;-73
2023/01/20 00:39:27;;;;;;;;;;;;;;;0.67;69.19;97308.00;4897738;29;20309;-73
2023/01/20 00:41:55;;;;;;;;;;;;;;;0.78;69.50;97301.63;4897163;29;19963;-74
2023/01/20 00:44:23;;;;;;;;;;;;;;;0.72;69.47;97302.69;4898270;29;19936;-73
2023/01/20 00:46:52;;;;;;;;;;;;;;;0.77;69.17;97316.88;4898347;29;19931;-73
2023/01/20 00:49:20;;;;;;;;;;;;;;;0.77;68.93;97314.19;4896273;29;19927;-73
2023/01/20 00:51:48;;;;;;;;;;;;;;;0.73;69.61;97320.31;4900432;29;20264;-73
2023/01/20 00:54:17;;;;;;;;;;;;;;;0.77;69.51;97332.09;4896138;29;19931;-73
2023/01/20 00:56:46;;;;;;;;;;;;;;;0.79;69.19;97333.44;4899759;29;20372;-73
2023/01/20 00:59:14;;;;;;;;;;;;;;;0.77;69.70;97334.78;4899187;29;19928;-73
2023/01/20 01:01:42;;;;;;;;;;;;;;;0.71;69.85;97331.28;4898031;29;20307;-73
2023/01/20 01:04:11;;;;;;;;;;;;;;;0.73;70.24;97336.38;4899352;29;19927;-73
2023/01/20 01:18:13;;;;;;;;;;;;;;;0.86;69.35;97357.28;4930312;29;19927;-72
2023/01/20 01:20:43;;;;;;;;;;;;;;;0.90;69.33;97360.22;4919395;29;20386;-75
2023/01/20 01:23:11;;;;;;;;;;;;;;;0.94;69.13;97364.78;4935441;29;19927;-76
2023/01/20 01:26:03;;;;;;;;;;;;;;;0.86;69.24;97361.81;4935777;29;19926;-76
2023/01/20 01:28:31;;;;;;;;;;;;;;;0.80;69.38;97358.34;4922503;29;19927;-76
2023/01/20 01:31:01;;;;;;;;;;;;;;;0.75;69.60;97359.13;4928549;29;19961;-76
2023/01/20 01:33:29;;;;;;;;;;;;;;;0.76;69.34;97359.91;4935242;29;19926;-75
2023/01/20 01:35:57;;;;;;;;;;;;;;;0.73;69.79;97363.09;4943434;29;19914;-82
2023/01/20 01:38:27;;;;;;;;;;;;;;;0.75;69.89;97363.66;4959067;28;19911;-82
2023/01/20 01:40:56;;;;;;;;;;;;;;;0.73;69.89;97363.09;4927227;29;19911;-81
2023/01/20 01:43:25;;;;;;;;;;;;;;;0.77;70.00;97365.00;4958106;28;19935;-82
2023/01/20 01:45:58;;;;;;;;;;;;;;;0.76;70.38;97366.06;4962344;28;19915;-82
2023/01/20 01:49:00;;;;;;;;;;;;;;;0.94;70.18;97363.97;4948756;28;19974;-82
2023/01/20 01:51:31;;;;;;;;;;;;;;;0.90;69.95;97369.03;4968837;28;19935;-82
2023/01/20 01:54:04;;;;;;;;;;;;;;;0.93;69.46;97373.06;4951050;28;19922;-81
2023/01/20 01:56:33;;;;;;;;;;;;;;;0.87;69.72;97374.94;4949465;28;19926;-82
2023/01/20 01:59:04;;;;;;;;;;;;;;;0.95;69.63;97376.28;4955058;29;19938;-82
2023/01/20 02:07:36;;;;;;;;;;;;;;;0.93;69.52;97379.22;4949980;23;19927;-77
2023/01/20 02:10:05;;;;;;;;;;;;;;;0.93;69.77;97375.75;4954634;29;19926;-76
2023/01/20 02:12:32;;;;;;;;;;;;;;;0.96;69.99;97378.72;4954349;29;19934;-75
2023/01/20 02:15:01;;;;;;;;;;;;;;;0.93;69.66;97379.22;4954938;28;20016;-76
2023/01/20 02:17:30;;;;;;;;;;;;;;;0.96;70.01;97384.06;4953985;29;19926;-76
2023/01/20 02:20:04;;;;;;;;;;;;;;;0.94;70.23;97380.81;4954681;28;20499;-76
2023/01/20 02:22:35;;;;;;;;;;;;;;;0.88;70.25;97381.88;4956435;28;19934;-76
2023/01/20 02:30:58;;;;;;;;;;;;;;;0.90;70.30;97382.41;5687548;23;20318;-75
2023/01/20 02:33:28;;;;;;;;;;;;;;;0.90;70.68;97381.63;4922862;29;19926;-75
2023/01/20 02:35:56;;;;;;;;;;;;;;;0.86;70.79;97376.00;4941163;29;19934;-75
2023/01/20 02:38:30;;;;;;;;;;;;;;;0.86;70.51;97384.03;4937364;29;19927;-75
2023/01/20 02:41:02;;;;;;;;;;;;;;;1.00;69.52;97390.47;4935573;29;19931;-76
2023/01/20 02:43:31;;;;;;;;;;;;;;;0.88;70.67;97392.56;4936605;29;19930;-76
2023/01/20 02:46:00;;;;;;;;;;;;;;;0.96;70.40;97389.41;4936359;29;19927;-75
2023/01/20 02:48:31;;;;;;;;;;;;;;;0.90;69.90;97390.44;4941958;29;20004;-75
2023/01/20 02:50:59;;;;;;;;;;;;;;;0.77;71.12;97388.25;4948484;28;19931;-72
2023/01/20 02:53:29;;;;;;;;;;;;;;;0.74;71.08;97396.78;4936992;28;19927;-72
2023/01/20 02:55:57;;;;;;;;;;;;;;;0.74;71.57;97391.44;4921858;29;19978;-72
2023/01/20 02:58:26;;;;;;;;;;;;;;;0.79;71.33;97389.59;4917950;29;19927;-72
2023/01/20 03:00:55;;;;;;;;;;;;;;;0.93;70.35;97397.16;4933206;29;19927;-72
2023/01/20 03:03:24;;;;;;;;;;;;;;;0.86;71.05;97389.38;4931658;29;20307;-72
2023/01/20 03:05:54;;;;;;;;;;;;;;;0.99;70.51;97388.06;4938217;29;19926;-76
2023/01/20 03:08:24;;;;;;;;;;;;;;;0.97;70.11;97390.22;4921401;29;19927;-77
2023/01/20 03:10:51;;;;;;;;;;;;;;;0.86;70.78;97383.22;4937189;29;19926;-76
2023/01/20 03:13:21;;;;;;;;;;;;;;;0.81;71.06;97381.31;4944195;29;20021;-77
2023/01/20 03:15:52;;;;;;;;;;;;;;;0.81;71.29;97381.31;4939189;29;19962;-76
2023/01/20 03:18:20;;;;;;;;;;;;;;;0.74;71.20;97370.84;4942749;28;19927;-77
2023/01/20 03:20:48;;;;;;;;;;;;;;;0.69;71.36;97372.69;4938526;29;20381;-76
2023/01/20 03:23:24;;;;;;;;;;;;;;;0.67;71.57;97380.19;4950066;29;19927;-77
2023/01/20 03:25:52;;;;;;;;;;;;;;;0.67;71.54;97381.00;4935796;29;19953;-76
2023/01/20 03:28:20;;;;;;;;;;;;;;;0.57;71.75;97380.94;4937959;29;20424;-76
2023/01/20 03:30:48;;;;;;;;;;;;;;;0.55;72.00;97387.63;4938308;29;19926;-76
2023/01/20 03:33:16;;;;;;;;;;;;;;;0.55;72.08;97388.41;4947089;29;19951;-76
2023/01/20 03:35:43;;;;;;;;;;;;;;;0.56;71.86;97390.03;4950323;29;19965;-78
2023/01/20 03:38:11;;;;;;;;;;;;;;;0.60;72.14;97390.31;4929370;29;19939;-78
2023/01/20 03:40:41;;;;;;;;;;;;;;;0.64;71.79;97394.88;4946162;29;19926;-73
2023/01/20 03:43:12;;;;;;;;;;;;;;;0.64;71.95;97399.41;4948763;29;20378;-73
2023/01/20 03:46:05;;;;;;;;;;;;;;;0.62;71.86;97404.22;4960607;29;20085;-77
2023/01/20 03:48:35;;;;;;;;;;;;;;;0.61;72.10;97413.31;4944884;29;19965;-76
2023/01/20 03:51:04;;;;;;;;;;;;;;;0.65;72.12;97414.41;4929733;29;19958;-74
2023/01/20 03:53:33;;;;;;;;;;;;;;;0.61;72.24;97411.44;4948255;29;19930;-74
2023/01/20 03:56:04;;;;;;;;;;;;;;;0.47;73.06;97408.41;4925083;29;19985;-74
2023/01/20 03:58:33;;;;;;;;;;;;;;;0.42;73.25;97405.69;4936495;29;20348;-73
2023/01/20 04:01:00;;;;;;;;;;;;;;;0.50;73.07;97410.56;4940775;29;20013;-76
2023/01/20 04:03:29;;;;;;;;;;;;;;;0.42;73.41;97403.03;4928864;29;19935;-76
2023/01/20 04:05:57;;;;;;;;;;;;;;;0.42;73.44;97408.38;4950733;29;19935;-77
2023/01/20 04:08:26;;;;;;;;;;;;;;;0.40;73.57;97399.81;4950705;29;20556;-78
2023/01/20 04:10:53;;;;;;;;;;;;;;;0.32;73.96;97400.31;4949709;29;19931;-78
2023/01/20 04:13:22;;;;;;;;;;;;;;;0.24;74.37;97403.47;4933615;29;19926;-77
2023/01/20 04:15:51;;;;;;;;;;;;;;;0.24;74.46;97409.59;4940254;29;19927;-78
2023/01/20 04:18:19;;;;;;;;;;;;;;;0.23;74.68;97407.19;4938364;29;19934;-78
2023/01/20 04:26:25;;;;;;;;;;;;;;;0.23;75.02;97416.03;5472772;23;19927;-74
2023/01/20 04:28:57;;;;;;;;;;;;;;;0.09;75.33;97422.06;4933272;29;20335;-74
2023/01/20 04:31:25;;;;;;;;;;;;;;;0.12;75.43;97433.03;4924984;29;19955;-77
2023/01/20 04:33:58;;;;;;;;;;;;;;;0.19;75.30;97432.81;4937776;28;20305;-77
2023/01/20 04:36:26;;;;;;;;;;;;;;;0.24;75.20;97433.66;4938665;29;20387;-77
2023/01/20 04:39:18;;;;;;;;;;;;;;;0.33;74.95;97439.34;4938820;29;20303;-76
2023/01/20 04:41:46;;;;;;;;;;;;;;;0.46;74.88;97436.19;4942543;29;20026;-77
2023/01/20 04:44:15;;;;;;;;;;;;;;;0.36;74.79;97449.50;4918525;29;19926;-77
2023/01/20 04:46:44;;;;;;;;;;;;;;;0.43;74.97;97450.09;4939237;29;19933;-78
2023/01/20 04:49:12;;;;;;;;;;;;;;;0.31;75.24;97460.13;4938246;29;19931;-78
2023/01/20 04:51:40;;;;;;;;;;;;;;;0.33;75.45;97462.56;4938977;29;19958;-74
2023/01/20 04:54:08;;;;;;;;;;;;;;;0.30;75.78;97465.75;4921697;29;19926;-73
2023/01/20 04:56:36;;;;;;;;;;;;;;;0.25;76.14;97463.84;4936756;29;20378;-74
2023/01/20 04:59:05;;;;;;;;;;;;;;;0.34;75.91;97466.84;4935364;29;20386;-74
2023/01/20 05:01:34;;;;;;;;;;;;;;;0.26;75.95;97470.78;4932501;29;20318;-77
2023/01/20 05:04:27;;;;;;;;;;;;;;;0.31;76.22;97470.03;4934310;29;19938;-77
2023/01/20 05:06:56;;;;;;;;;;;;;;;0.38;76.13;97478.66;4932469;29;19927;-75
2023/01/20 05:09:24;;;;;;;;;;;;;;;0.40;75.70;97480.00;4933620;29;19938;-75
2023/01/20 05:11:52;;;;;;;;;;;;;;;0.46;75.63;97481.63;4938887;28;19978;-78
2023/01/20 05:14:19;;;;;;;;;;;;;;;0.52;75.56;97493.97;4936648;28;19945;-77
2023/01/20 05:16:49;;;;;;;;;;;;;;;0.56;75.06;97491.59;4938186;29;19974;-77
2023/01/20 05:19:17;;;;;;;;;;;;;;;0.53;75.65;97497.44;4934352;29;19975;-77
2023/01/20 05:21:46;;;;;;;;;;;;;;;0.55;75.25;97495.34;4938210;29;19938;-75
2023/01/20 05:24:14;;;;;;;;;;;;;;;0.56;75.37;97501.47;4936449;29;19934;-74
2023/01/20 05:26:42;;;;;;;;;;;;;;;0.56;75.58;97504.16;4937574;29;19927;-75
2023/01/20 05:29:10;;;;;;;;;;;;;;;0.58;75.86;97513.53;4931540;28;19927;-74
2023/01/20 05:31:41;;;;;;;;;;;;;;;0.62;75.62;97521.84;4937417;29;20355;-74
2023/01/20 05:34:11;;;;;;;;;;;;;;;0.57;75.98;97519.13;4935742;29;19982;-74
2023/01/20 05:36:40;;;;;;;;;;;;;;;0.51;76.32;97527.09;4931189;29;19927;-74
2023/01/20 05:39:08;;;;;;;;;;;;;;;0.51;76.55;97532.47;4940171;29;20048;-74
2023/01/20 05:41:37;;;;;;;;;;;;;;;0.54;76.53;97527.69;4933634;29;19974;-77
2023/01/20 05:44:06;;;;;;;;;;;;;;;0.52;76.91;97534.06;4935366;29;20013;-77
2023/01/20 05:46:35;;;;;;;;;;;;;;;0.52;76.64;97530.59;4954854;28;20022;-83
2023/01/20 05:54:55;;;;;;;;;;;;;;;0.42;76.93;97544.66;5779763;23;19918;-83
2023/01/20 05:57:24;;;;;;;;;;;;;;;0.60;76.26;97548.03;4966422;28;19916;-84
2023/01/20 06:11:38;;;;;;;;;;;;;;;0.49;75.59;97566.66;5385994;23;19990;-82
2023/01/20 06:14:07;;;;;;;;;;;;;;;0.47;75.49;97559.94;4962128;28;19987;-82
2023/01/20 06:22:27;;;;;;;;;;;;;;;0.67;75.43;97576.16;5011731;23;19930;-74
2023/01/20 06:24:58;;;;;;;;;;;;;;;0.68;75.51;97574.28;4933517;29;19927;-74
2023/01/20 06:27:27;;;;;;;;;;;;;;;0.69;75.42;97573.22;4936104;29;19934;-73
2023/01/20 06:29:56;;;;;;;;;;;;;;;0.68;75.47;97568.94;4938873;29;19935;-74
2023/01/20 06:32:24;;;;;;;;;;;;;;;0.69;75.40;97570.53;5595924;23;19935;-78
2023/01/20 06:34:53;;;;;;;;;;;;;;;0.75;75.04;97574.88;4934896;29;19954;-78
2023/01/20 06:37:23;;;;;;;;;;;;;;;0.78;74.91;97579.72;4943274;28;19933;-79
2023/01/20 06:39:51;;;;;;;;;;;;;;;0.82;74.96;97583.50;4934278;29;19950;-71
2023/01/20 06:42:19;;;;;;;;;;;;;;;0.99;74.15;97580.66;4929964;29;19950;-71
2023/01/20 06:44:51;;;;;;;;;;;;;;;1.11;73.57;97588.50;4918514;29;19969;-73
2023/01/20 06:47:19;;;;;;;;;;;;;;;1.08;73.69;97586.34;4934069;28;19926;-73
2023/01/20 06:49:47;;;;;;;;;;;;;;;1.20;73.17;97594.97;4917727;29;19973;-73
2023/01/20 06:52:17;;;;;;;;;;;;;;;1.18;73.49;97594.44;4931152;29;19930;-74
2023/01/20 06:54:45;;;;;;;;;;;;;;;1.16;72.86;97596.53;4926548;29;19927;-76
2023/01/20 06:57:13;;;;;;;;;;;;;;;1.17;72.86;97598.16;4925010;29;20426;-79
2023/01/20 06:59:42;;;;;;;;;;;;;;;1.17;72.37;97601.66;4930816;29;19926;-74
2023/01/20 07:02:13;;;;;;;;;;;;;;;1.19;72.59;97610.22;4940805;29;19918;-75
2023/01/20 07:04:44;;;;;;;;;;;;;;;1.21;72.78;97608.09;4930599;29;20374;-75
2023/01/20 07:10:07;;;;;;;;;;;;;;;1.25;72.48;97617.22;4935688;28;20050;-79
2023/01/20 07:12:36;;;;;;;;;;;;;;;1.26;72.96;97610.78;4946256;28;19976;-75
2023/01/20 07:15:05;;;;;;;;;;;;;;;1.27;72.84;97619.63;4934527;29;19934;-74
2023/01/20 07:17:36;;;;;;;;;;;;;;;1.35;72.76;97623.69;4939772;29;19926;-74
2023/01/20 07:20:07;;;;;;;;;;;;;;;1.23;72.69;97623.91;4923711;29;20021;-74
2023/01/20 07:22:35;;;;;;;;;;;;;;;1.24;72.72;97636.22;4940005;29;19934;-75
2023/01/20 07:25:03;;;;;;;;;;;;;;;1.24;73.04;97636.22;4940192;29;20015;-75
2023/01/20 07:27:32;;;;;;;;;;;;;;;1.26;73.16;97634.88;4924298;29;20445;-74
2023/01/20 07:30:00;;;;;;;;;;;;;;;1.30;73.16;97646.69;4912632;29;19927;-75
2023/01/20 07:32:29;;;;;;;;;;;;;;;1.34;72.81;97646.19;4936310;29;19927;-75
2023/01/20 07:34:59;;;;;;;;;;;;;;;1.24;72.93;97650.41;4936477;29;19927;-74
2023/01/20 07:37:26;;;;;;;;;;;;;;;1.27;73.39;97657.91;4937765;29;19938;-74
2023/01/20 07:39:57;;;;;;;;;;;;;;;1.36;73.31;97663.59;4936624;29;19931;-74
2023/01/20 07:42:24;;;;;;;;;;;;;;;1.28;73.16;97656.06;4939766;29;19926;-71
2023/01/20 07:44:53;;;;;;;;;;;;;;;1.24;73.43;97663.78;4921043;29;19950;-71
2023/01/20 07:47:21;;;;;;;;;;;;;;;1.24;73.30;97662.97;4930423;29;19934;-74
2023/01/20 07:49:50;;;;;;;;;;;;;;;1.17;73.57;97668.56;4936103;29;20302;-74
2023/01/20 07:52:20;;;;;;;;;;;;;;;1.15;73.49;97669.84;4935083;29;19931;-73
2023/01/20 07:54:48;;;;;;;;;;;;;;;1.17;73.66;97665.03;4921013;29;19958;-72
2023/01/20 07:57:16;;;;;;;;;;;;;;;1.23;73.98;97674.75;4933287;29;19931;-72
2023/01/20 07:59:45;;;;;;;;;;;;;;;1.19;74.31;97670.97;4926340;29;20334;-72
2023/01/20 08:02:12;;;;;;;;;;;;;;;1.32;74.10;97675.88;4927775;29;19938;-72
2023/01/20 08:04:41;;;;;;;;;;;;;;;1.25;73.95;97670.75;4945484;28;19938;-72
2023/01/20 08:07:09;;;;;;;;;;;;;;;1.20;74.12;97683.28;4930442;29;19978;-72
2023/01/20 08:09:40;;;;;;;;;;;;;;;1.23;73.98;97685.44;4924224;29;19943;-72
2023/01/20 08:12:08;;;;;;;;;;;;;;;1.36;74.01;97693.03;4935769;29;19927;-73
2023/01/20 08:14:36;;;;;;;;;;;;;;;1.43;74.04;97692.78;4939129;29;19931;-73
2023/01/20 08:17:05;;;;;;;;;;;;;;;1.46;73.49;97693.09;4927749;29;19940;-74
2023/01/20 08:19:33;;;;;;;;;;;;;;;1.39;74.29;97691.72;4920771;29;19927;-74
2023/01/20 08:22:01;;;;;;;;;;;;;;;1.45;74.10;97693.38;4936953;29;19930;-74
2023/01/20 08:24:29;;;;;;;;;;;;;;;1.54;73.55;97699.81;4947315;29;19927;-74
2023/01/20 08:26:59;;;;;;;;;;;;;;;1.47;73.79;97704.59;4930214;29;20409;-74
2023/01/20 08:29:27;;;;;;;;;;;;;;;1.36;73.86;97703.72;4928372;29;19930;-74
2023/01/20 08:34:47;;;;;;;;;;;;;;;1.35;73.77;97704.81;4920488;29;20032;-74
2023/01/20 08:37:16;;;;;;;;;;;;;;;1.45;73.15;97712.91;4926702;29;19927;-74
2023/01/20 08:39:46;;;;;;;;;;;;;;;1.37;73.65;97717.91;4919256;29;19928;-74
2023/01/20 08:42:15;;;;;;;;;;;;;;;1.43;73.36;97715.00;4925055;29;19934;-74
2023/01/20 08:44:43;;;;;;;;;;;;;;;1.44;73.14;97716.66;4919175;29;19934;-74
2023/01/20 08:47:11;;;;;;;;;;;;;;;1.46;73.10;97722.53;4927293;29;19934;-74
2023/01/20 08:49:40;;;;;;;;;;;;;;;1.37;73.33;97726.75;4916536;29;19927;-74
2023/01/20 08:52:08;;;;;;;;;;;;;;;1.40;73.53;97730.81;4919260;29;19927;-71
2023/01/20 08:55:00;;;;;;;;;;;;;;;1.36;73.72;97735.84;4917118;29;19934;-71
2023/01/20 08:57:30;;;;;;;;;;;;;;;1.44;73.21;97734.56;4916038;29;19927;-72
2023/01/20 09:00:01;;;;;;;;;;;;;;;1.48;73.03;97741.03;4917672;29;19926;-72
2023/01/20 09:02:53;;;;;;;;;;;;;;;1.38;72.74;97749.78;4916873;29;19931;-73
2023/01/20 09:05:22;;;;;;;;;;;;;;;1.39;73.28;97746.06;4928017;29;19927;-73
2023/01/20 09:08:16;;;;;;;;;;;;;;;1.29;73.63;97751.31;4918292;29;20314;-74
2023/01/20 09:10:44;;;;;;;;;;;;;;;1.23;73.85;97755.84;4920468;29;19934;-71
2023/01/20 09:13:14;;;;;;;;;;;;;;;1.23;74.20;97755.03;4918588;29;19931;-70
2023/01/20 09:15:41;;;;;;;;;;;;;;;1.24;74.69;97753.97;4923443;29;19927;-71
2023/01/20 09:18:17;;;;;;;;;;;;;;;1.32;74.16;97758.84;4906441;29;19934;-70
2023/01/20 09:20:44;;;;;;;;;;;;;;;1.34;73.70;97767.44;4915482;29;19962;-72
2023/01/20 09:23:17;;;;;;;;;;;;;;;1.42;73.27;97768.81;4901737;29;19931;-73
2023/01/20 09:25:45;;;;;;;;;;;;;;;1.43;73.49;97775.78;4922772;29;19926;-72
2023/01/20 09:28:16;;;;;;;;;;;;;;;1.45;73.35;97774.47;4910267;29;19928;-73
2023/01/20 09:30:48;;;;;;;;;;;;;;;1.43;73.35;97781.13;4918700;29;19927;-74
2023/01/20 09:33:17;;;;;;;;;;;;;;;1.41;74.00;97781.41;4925702;29;19934;-74
2023/01/20 09:35:44;;;;;;;;;;;;;;;1.40;73.11;97793.19;4946500;29;19926;-74
2023/01/20 09:43:57;;;;;;;;;;;;;;;1.20;73.52;97806.38;4939844;29;19934;-71
2023/01/20 09:46:29;;;;;;;;;;;;;;;1.17;74.17;97805.03;4945746;28;19926;-73
2023/01/20 09:54:33;;;;;;;;;;;;;;;1.35;74.82;97809.19;4935634;29;19931;-74
2023/01/20 09:57:01;;;;;;;;;;;;;;;1.39;74.20;97799.59;4922015;29;20008;-74
2023/01/20 09:59:32;;;;;;;;;;;;;;;1.51;74.15;97808.25;4934190;29;19927;-74
2023/01/20 10:02:00;;;;;;;;;;;;;;;1.44;74.11;97809.50;4917637;29;20376;-71
2023/01/20 10:04:31;;;;;;;;;;;;;;;1.51;73.85;97807.44;4929357;29;19927;-71
2023/01/20 10:07:03;;;;;;;;;;;;;;;1.55;73.57;97806.69;4953106;28;20312;-74
2023/01/20 10:09:33;;;;;;;;;;;;;;;1.61;73.36;97818.25;4934362;29;20379;-74
2023/01/20 10:12:01;;;;;;;;;;;;;;;1.73;73.64;97810.03;4945562;29;19927;-73
2023/01/20 10:14:29;;;;;;;;;;;;;;;1.82;73.09;97813.84;4939974;29;19981;-73
2023/01/20 10:17:00;;;;;;;;;;;;;;;1.71;73.07;97815.66;4932692;29;19953;-75
2023/01/20 10:19:31;;;;;;;;;;;;;;;1.71;73.15;97817.53;4935441;29;19982;-74
2023/01/20 10:22:03;;;;;;;;;;;;;;;1.70;73.27;97816.69;4923868;29;19938;-73
2023/01/20 10:24:56;;;;;;;;;;;;;;;1.73;73.58;97813.50;4939962;28;19935;-78
2023/01/20 10:27:29;;;;;;;;;;;;;;;1.72;73.50;97819.13;4924338;29;20279;-73
2023/01/20 10:29:59;;;;;;;;;;;;;;;1.81;73.59;97815.72;4925862;29;19931;-74
2023/01/20 10:32:32;;;;;;;;;;;;;;;1.82;73.39;97820.03;4942178;29;19945;-74
2023/01/20 10:35:02;;;;;;;;;;;;;;;1.67;74.18;97817.22;4938917;29;19938;-75
2023/01/20 10:37:30;;;;;;;;;;;;;;;1.79;73.26;97814.34;4939935;28;19934;-73
2023/01/20 10:40:01;;;;;;;;;;;;;;;1.76;73.47;97817.56;4931801;29;19927;-73
2023/01/20 10:42:29;;;;;;;;;;;;;;;1.83;73.95;97816.28;4937730;29;19926;-73
2023/01/20 10:44:57;;;;;;;;;;;;;;;1.90;73.72;97818.72;4925234;29;19927;-73
2023/01/20 10:47:27;;;;;;;;;;;;;;;1.93;73.78;97820.91;4919786;29;20318;-73
2023/01/20 10:50:03;;;;;;;;;;;;;;;2.03;73.05;97825.53;4929888;29;19926;-73
2023/01/20 10:52:37;;;;;;;;;;;;;;;2.08;72.86;97823.69;4932867;28;19993;-73
2023/01/20 10:55:07;;;;;;;;;;;;;;;2.21;73.10;97826.97;4921646;29;20386;-74
2023/01/20 10:57:35;;;;;;;;;;;;;;;2.27;72.06;97821.38;4936736;29;19949;-73
2023/01/20 11:00:05;;;;;;;;;;;;;;;2.17;71.90;97825.84;4936825;29;19930;-74
2023/01/20 11:02:39;;;;;;;;;;;;;;;2.19;72.12;97829.91;4940771;29;19943;-74
2023/01/20 11:05:31;;;;;;;;;;;;;;;2.16;72.07;97825.06;4924791;29;19930;-75
2023/01/20 11:08:08;;;;;;;;;;;;;;;2.29;71.38;97831.81;4908833;29;19934;-75
2023/01/20 11:10:36;;;;;;;;;;;;;;;2.32;70.91;97828.63;4917071;29;19927;-75
2023/01/20 11:13:04;;;;;;;;;;;;;;;2.46;70.49;97840.50;4928201;29;20394;-75
2023/01/20 11:15:33;;;;;;;;;;;;;;;2.49;70.23;97839.97;4926462;29;19973;-74
2023/01/20 11:18:16;;;;;;;;;;;;;;;2.57;69.93;97841.38;4931959;29;19938;-76
2023/01/20 11:20:45;;;;;;;;;;;;;;;2.54;69.68;97831.97;4930323;29;19934;-76
2023/01/20 11:23:21;;;;;;;;;;;;;;;2.59;69.96;97834.66;4932768;29;19927;-78
2023/01/20 11:25:55;;;;;;;;;;;;;;;2.63;70.22;97830.41;4925338;29;19930;-76
2023/01/20 11:28:24;;;;;;;;;;;;;;;2.71;68.18;97833.63;4930130;29;19927;-76
2023/01/20 11:30:54;;;;;;;;;;;;;;;2.55;69.11;97836.25;4934002;29;19966;-78
2023/01/20 11:33:23;;;;;;;;;;;;;;;2.50;68.75;97840.78;4937284;29;19946;-76
2023/01/20 11:35:58;;;;;;;;;;;;;;;2.49;69.32;97837.28;4938225;29;20396;-76
2023/01/20 11:38:31;;;;;;;;;;;;;;;2.49;69.55;97837.28;4942800;29;19937;-77
2023/01/20 11:40:59;;;;;;;;;;;;;;;2.53;69.45;97838.41;4941552;29;19931;-77
2023/01/20 11:43:28;;;;;;;;;;;;;;;2.61;69.19;97835.22;4938636;29;19934;-73
2023/01/20 11:46:18;;;;;;;;;;;;;;;2.59;68.73;97840.03;4943791;29;19930;-74
2023/01/20 11:49:17;;;;;;;;;;;;;;;2.45;69.53;97841.59;4940051;29;19981;-75
2023/01/20 11:51:49;;;;;;;;;;;;;;;2.42;69.05;97841.28;4946513;29;19926;-72
2023/01/20 11:54:19;;;;;;;;;;;;;;;2.45;68.66;97838.91;4941541;29;19935;-73
2023/01/20 11:56:48;;;;;;;;;;;;;;;2.51;68.55;97832.50;4936535;29;19974;-72
2023/01/20 11:59:24;;;;;;;;;;;;;;;2.42;68.34;97830.56;4936453;29;19926;-76
2023/01/20 12:01:56;;;;;;;;;;;;;;;2.56;67.86;97840.56;4930033;29;19934;-75
2023/01/20 12:04:39;;;;;;;;;;;;;;;2.58;68.35;97843.78;4940903;29;19926;-78
2023/01/20 12:07:08;;;;;;;;;;;;;;;2.55;68.16;97838.94;4947464;29;19984;-73
2023/01/20 12:09:38;;;;;;;;;;;;;;;2.54;68.48;97848.06;4948604;29;19934;-73
2023/01/20 12:12:06;;;;;;;;;;;;;;;2.51;68.03;97845.91;4948145;29;19927;-73
2023/01/20 12:14:37;;;;;;;;;;;;;;;2.51;67.68;97839.75;4932017;29;20022;-74
2023/01/20 12:17:14;;;;;;;;;;;;;;;2.52;68.44;97849.41;4948270;29;19934;-73
2023/01/20 12:19:44;;;;;;;;;;;;;;;2.49;68.59;97848.03;4944963;29;20284;-74
2023/01/20 12:22:13;;;;;;;;;;;;;;;2.38;69.02;97849.03;4945984;29;19931;-75
2023/01/20 12:27:35;;;;;;;;;;;;;;;2.27;69.80;97856.22;4941200;29;19955;-75
2023/01/20 12:30:04;;;;;;;;;;;;;;;2.28;69.77;97854.34;4942888;29;19934;-77
2023/01/20 12:32:39;;;;;;;;;;;;;;;2.28;69.45;97859.69;4936639;29;19926;-74
2023/01/20 12:35:10;;;;;;;;;;;;;;;2.15;69.59;97858.28;4923753;29;19981;-73
2023/01/20 12:37:39;;;;;;;;;;;;;;;2.19;70.12;97867.44;4941822;29;19974;-74
2023/01/20 12:40:13;;;;;;;;;;;;;;;2.18;70.14;97863.13;4932213;29;19931;-75
2023/01/20 12:43:00;;;;;;;;;;;;;;;2.27;69.99;97866.13;4936324;29;20522;-74
2023/01/20 12:45:32;;;;;;;;;;;;;;;2.26;70.12;97867.22;4934944;29;19930;-74
2023/01/20 12:48:04;;;;;;;;;;;;;;;2.21;70.70;97872.53;4935741;29;20022;-74
2023/01/20 12:50:35;;;;;;;;;;;;;;;2.23;71.14;97873.88;4916924;29;19927;-73
2023/01/20 12:56:12;;;;;;;;;;;;;;;2.18;70.27;97876.53;4933365;29;19935;-74
2023/01/20 12:59:05;;;;;;;;;;;;;;;2.09;70.59;97878.09;4934661;29;20006;-74
2023/01/20 13:01:39;;;;;;;;;;;;;;;2.09;70.36;97878.88;4936253;29;19934;-74
2023/01/20 13:04:31;;;;;;;;;;;;;;;2.06;69.66;97887.44;4927238;29;19930;-73
2023/01/20 13:07:10;;;;;;;;;;;;;;;1.96;70.64;97884.66;4919416;29;19938;-72
2023/01/20 13:09:53;;;;;;;;;;;;;;;2.03;70.86;97890.63;4937873;29;19931;-72
2023/01/20 13:12:33;;;;;;;;;;;;;;;2.02;70.51;97889.00;4904286;29;19927;-72
2023/01/20 13:15:03;;;;;;;;;;;;;;;1.95;70.52;97893.78;4936674;29;19962;-71
2023/01/20 13:17:32;;;;;;;;;;;;;;;1.93;70.88;97890.56;4937151;29;20405;-72
2023/01/20 13:20:00;;;;;;;;;;;;;;;1.91;71.67;97889.97;4936788;29;19938;-72
2023/01/20 13:22:29;;;;;;;;;;;;;;;1.92;70.97;97888.94;4935223;29;20445;-72
2023/01/20 13:24:57;;;;;;;;;;;;;;;1.79;71.80;97902.75;4921441;29;20402;-73
2023/01/20 13:27:28;;;;;;;;;;;;;;;1.76;72.00;97905.94;4937452;28;19966;-71
2023/01/20 13:30:01;;;;;;;;;;;;;;;1.72;71.94;97904.84;4936051;29;19934;-73
2023/01/20 13:32:31;;;;;;;;;;;;;;;1.68;72.51;97896.50;4935960;29;19954;-73
2023/01/20 13:35:26;;;;;;;;;;;;;;;1.65;71.73;97906.91;4920771;29;19927;-74
2023/01/20 13:37:55;;;;;;;;;;;;;;;1.62;72.03;97904.75;4937413;29;19969;-74
2023/01/20 13:40:44;;;;;;;;;;;;;;;1.64;72.79;97911.44;4937377;29;19933;-71
2023/01/20 13:43:29;;;;;;;;;;;;;;;1.80;72.30;97901.69;4927896;29;19933;-71
2023/01/20 13:46:13;;;;;;;;;;;;;;;1.89;72.03;97908.19;4934730;29;19974;-74
2023/01/20 13:49:36;;;;;;;;;;;;;;;1.81;71.42;97914.00;4934697;29;19934;-75
2023/01/20 13:52:05;;;;;;;;;;;;;;;1.83;71.15;97917.25;4906153;29;19927;-77
2023/01/20 13:54:44;;;;;;;;;;;;;;;1.80;71.40;97923.09;4929992;29;19926;-77
2023/01/20 13:57:34;;;;;;;;;;;;;;;1.90;70.91;97915.16;4935850;29;20172;-77
2023/01/20 14:00:15;;;;;;;;;;;;;;;1.80;71.16;97923.09;4928774;29;19934;-77
2023/01/20 14:02:43;;;;;;;;;;;;;;;1.78;71.03;97925.25;4919754;29;19927;-77
2023/01/20 14:05:36;;;;;;;;;;;;;;;1.82;69.66;97929.03;4937082;29;19931;-77
2023/01/20 14:08:14;;;;;;;;;;;;;;;1.81;69.86;97930.06;4935697;29;20343;-74
2023/01/20 14:10:42;;;;;;;;;;;;;;;1.79;70.10;97930.34;4936921;29;19981;-74
2023/01/20 14:13:10;;;;;;;;;;;;;;;1.88;70.49;97932.56;4936469;29;19935;-74
2023/01/20 14:15:38;;;;;;;;;;;;;;;1.90;70.20;97938.47;4934902;29;19943;-74
2023/01/20 14:18:13;;;;;;;;;;;;;;;2.02;70.18;97942.59;4932829;29;20021;-74
2023/01/20 14:20:41;;;;;;;;;;;;;;;2.02;70.56;97942.59;4937532;29;20014;-77
2023/01/20 14:23:34;;;;;;;;;;;;;;;2.06;69.50;97946.38;4936789;29;20386;-78
2023/01/20 14:26:05;;;;;;;;;;;;;;;2.02;69.61;97947.16;4919449;29;19958;-72
2023/01/20 14:28:34;;;;;;;;;;;;;;;2.08;69.05;97955.00;4922778;29;19934;-73
2023/01/20 14:31:17;;;;;;;;;;;;;;;2.08;69.80;97955.00;4932838;28;20401;-73
2023/01/20 14:33:47;;;;;;;;;;;;;;;2.16;69.95;97964.44;4935768;29;19982;-72
2023/01/20 14:36:16;;;;;;;;;;;;;;;2.15;69.49;97962.00;4937771;29;19931;-72